createdAt,value
2018-12-10T00:00:43.634Z,80.15
2018-12-10T00:01:43.587Z,79.73
2018-12-10T00:02:43.534Z,80.25
2018-12-10T00:03:43.529Z,79.94
2018-12-10T00:04:43.502Z,79.01
2018-12-10T00:05:43.552Z,80.15
2018-12-10T00:06:43.480Z,79.52
2018-12-10T00:07:43.558Z,79.87
2018-12-10T00:08:43.470Z,79.87
2018-12-10T00:09:43.465Z,80.08
2018-12-10T00:10:43.429Z,80.08
2018-12-10T00:11:43.485Z,78.70
2018-12-10T00:12:43.437Z,79.56
2018-12-10T00:13:43.451Z,79.05
2018-12-10T00:14:43.462Z,79.25
2018-12-10T00:15:43.383Z,79.56
2018-12-10T00:16:43.372Z,79.25
2018-12-10T00:17:43.363Z,79.87
2018-12-10T00:18:43.370Z,79.56
2018-12-10T00:19:43.324Z,79.66
2018-12-10T00:20:43.321Z,80.18
2018-12-10T00:21:43.281Z,80.53
2018-12-10T00:22:43.308Z,80.18
2018-12-10T00:23:43.310Z,79.97
2018-12-10T00:24:43.295Z,79.77
2018-12-10T00:25:43.300Z,80.29
2018-12-10T00:26:43.278Z,80.01
2018-12-10T00:27:43.236Z,80.22
2018-12-10T00:28:43.286Z,80.08
2018-12-10T00:29:43.208Z,79.87
2018-12-10T00:30:43.208Z,79.97
2018-12-10T00:31:43.286Z,80.01
2018-12-10T00:32:43.264Z,80.11
2018-12-10T00:33:43.172Z,80.08
2018-12-10T00:34:43.169Z,79.80
2018-12-10T00:35:43.149Z,79.80
2018-12-10T00:36:43.174Z,79.91
2018-12-10T00:37:43.139Z,80.22
2018-12-10T00:38:43.130Z,79.56
2018-12-10T00:39:43.127Z,80.11
2018-12-10T00:40:43.190Z,80.01
2018-12-10T00:41:43.085Z,79.70
2018-12-10T00:42:43.067Z,78.98
2018-12-10T00:43:43.055Z,79.91
2018-12-10T00:44:43.050Z,79.29
2018-12-10T00:45:43.076Z,79.19
2018-12-10T00:46:43.046Z,79.49
2018-12-10T00:47:43.057Z,79.39
2018-12-10T00:48:43.030Z,79.80
2018-12-10T00:49:42.993Z,79.80
2018-12-10T00:50:42.981Z,79.70
2018-12-10T00:51:42.982Z,79.02
2018-12-10T00:52:42.964Z,78.77
2018-12-10T00:53:42.968Z,79.29
2018-12-10T00:54:42.957Z,79.08
2018-12-10T00:55:42.939Z,79.22
2018-12-10T00:56:42.929Z,78.77
2018-12-10T00:57:42.940Z,78.98
2018-12-10T00:58:42.921Z,79.08
2018-12-10T00:59:42.879Z,79.29
2018-12-10T01:00:42.901Z,79.19
2018-12-10T01:01:42.880Z,78.91
2018-12-10T01:02:42.909Z,78.67
2018-12-10T01:03:42.836Z,79.08
2018-12-10T01:04:42.842Z,79.43
2018-12-10T01:05:42.839Z,79.43
2018-12-10T01:06:42.858Z,78.88
2018-12-10T01:07:42.801Z,79.02
2018-12-10T01:08:42.841Z,78.67
2018-12-10T01:09:42.798Z,78.98
2018-12-10T01:10:51.815Z,79.49
2018-12-10T01:11:42.784Z,78.77
2018-12-10T01:12:51.840Z,79.53
2018-12-10T01:13:42.748Z,79.60
2018-12-10T01:14:42.742Z,78.70
2018-12-10T01:15:42.751Z,79.12
2018-12-10T01:16:42.685Z,79.22
2018-12-10T01:17:42.690Z,79.22
2018-12-10T01:18:42.675Z,78.91
2018-12-10T01:19:42.668Z,79.77
2018-12-10T01:20:42.683Z,79.53
2018-12-10T01:23:00.062Z,79.43
2018-12-10T01:24:00.029Z,79.67
2018-12-10T01:25:00.013Z,79.63
2018-12-10T01:26:00.019Z,78.91
2018-12-10T01:27:00.045Z,79.74
2018-12-10T01:28:00.018Z,79.12
2018-12-10T01:28:59.996Z,78.81
2018-12-10T01:30:00.022Z,79.02
2018-12-10T01:30:59.994Z,79.02
2018-12-10T01:31:59.945Z,79.22
2018-12-10T01:32:59.957Z,79.33
2018-12-10T01:33:59.930Z,79.53
2018-12-10T01:34:59.930Z,79.67
2018-12-10T01:36:00.075Z,79.26
2018-12-10T01:36:59.901Z,79.74
2018-12-10T01:37:59.896Z,79.67
2018-12-10T01:38:59.890Z,79.77
2018-12-10T01:39:59.918Z,80.08
2018-12-10T01:40:59.917Z,80.08
2018-12-10T01:41:59.856Z,80.19
2018-12-10T01:42:59.856Z,80.40
2018-12-10T01:43:59.841Z,80.50
2018-12-10T01:44:59.831Z,80.22
2018-12-10T01:45:59.801Z,80.43
2018-12-10T01:46:59.780Z,80.29
2018-12-10T01:47:59.799Z,80.22
2018-12-10T01:48:59.770Z,81.05
2018-12-10T01:49:59.800Z,80.95
2018-12-10T01:50:59.779Z,80.95
2018-12-10T01:51:59.747Z,80.85
2018-12-10T01:52:59.740Z,80.85
2018-12-10T01:53:59.750Z,80.95
2018-12-10T01:54:59.705Z,80.95
2018-12-10T01:55:59.731Z,80.85
2018-12-10T01:56:59.678Z,81.47
2018-12-10T01:57:59.680Z,81.16
2018-12-10T01:58:59.667Z,81.61
2018-12-10T01:59:59.665Z,81.16
2018-12-10T02:00:59.663Z,81.68
2018-12-10T02:01:59.654Z,81.37
2018-12-10T02:02:59.662Z,81.57
2018-12-10T02:03:59.619Z,81.68
2018-12-10T02:04:59.592Z,81.37
2018-12-10T02:05:59.597Z,81.33
2018-12-10T02:06:59.604Z,81.57
2018-12-10T02:07:59.576Z,81.26
2018-12-10T02:08:59.562Z,81.64
2018-12-10T02:09:59.580Z,81.12
2018-12-10T02:10:59.535Z,81.54
2018-12-10T02:11:59.592Z,81.02
2018-12-10T02:12:59.551Z,80.81
2018-12-10T02:13:59.517Z,81.12
2018-12-10T02:14:59.494Z,81.54
2018-12-10T02:15:59.511Z,81.12
2018-12-10T02:16:59.510Z,81.02
2018-12-10T02:17:59.469Z,81.02
2018-12-10T02:18:59.470Z,80.81
2018-12-10T02:19:59.456Z,80.60
2018-12-10T02:20:59.443Z,80.40
2018-12-10T02:21:59.410Z,80.71
2018-12-10T02:22:59.402Z,80.95
2018-12-10T02:23:59.414Z,81.02
2018-12-10T02:24:59.396Z,81.05
2018-12-10T02:25:59.375Z,81.12
2018-12-10T02:26:59.394Z,80.81
2018-12-10T02:27:59.371Z,81.12
2018-12-10T02:28:59.381Z,80.85
2018-12-10T02:29:59.422Z,80.95
2018-12-10T02:30:59.335Z,80.71
2018-12-10T02:31:59.329Z,80.95
2018-12-10T02:32:59.333Z,80.95
2018-12-10T02:33:59.294Z,81.02
2018-12-10T02:34:59.330Z,80.91
2018-12-10T02:35:59.280Z,80.60
2018-12-10T02:36:59.260Z,80.81
2018-12-10T02:37:59.253Z,80.50
2018-12-10T02:38:59.264Z,80.81
2018-12-10T02:39:59.215Z,80.81
2018-12-10T02:40:59.222Z,80.29
2018-12-10T02:41:59.217Z,80.19
2018-12-10T02:42:59.192Z,80.33
2018-12-10T02:43:59.194Z,80.50
2018-12-10T02:44:59.196Z,80.29
2018-12-10T02:45:59.208Z,80.29
2018-12-10T02:46:59.156Z,80.29
2018-12-10T02:47:59.172Z,80.19
2018-12-10T02:48:59.145Z,80.33
2018-12-10T02:49:59.177Z,80.40
2018-12-10T02:50:59.112Z,80.50
2018-12-10T02:51:59.128Z,80.71
2018-12-10T02:52:59.093Z,80.71
2018-12-10T02:53:59.104Z,80.54
2018-12-10T02:54:59.084Z,80.54
2018-12-10T02:55:59.101Z,80.64
2018-12-10T02:56:59.059Z,80.43
2018-12-10T02:57:59.059Z,80.33
2018-12-10T02:58:59.032Z,80.60
2018-12-10T02:59:59.043Z,80.40
2018-12-10T03:00:59.019Z,80.71
2018-12-10T03:01:59.035Z,80.19
2018-12-10T03:02:59.016Z,80.43
2018-12-10T03:03:58.992Z,80.64
2018-12-10T03:04:58.971Z,80.64
2018-12-10T03:05:58.973Z,80.33
2018-12-10T03:06:58.980Z,80.22
2018-12-10T03:07:58.979Z,80.64
2018-12-10T03:08:58.920Z,80.33
2018-12-10T03:09:58.932Z,80.33
2018-12-10T03:10:59.059Z,80.22
2018-12-10T03:11:58.910Z,80.40
2018-12-10T03:12:58.878Z,80.64
2018-12-10T03:13:58.873Z,80.54
2018-12-10T03:14:58.893Z,80.74
2018-12-10T03:15:58.862Z,79.71
2018-12-10T03:16:58.860Z,80.29
2018-12-10T03:17:58.825Z,80.02
2018-12-10T03:18:58.910Z,80.64
2018-12-10T03:19:58.796Z,80.54
2018-12-10T03:20:58.816Z,80.43
2018-12-10T03:21:58.820Z,80.74
2018-12-10T03:22:58.831Z,80.54
2018-12-10T03:23:58.754Z,80.12
2018-12-10T03:24:58.751Z,80.22
2018-12-10T03:25:58.745Z,79.91
2018-12-10T03:26:58.772Z,80.12
2018-12-10T03:27:58.762Z,80.33
2018-12-10T03:28:58.780Z,80.02
2018-12-10T03:29:58.731Z,79.81
2018-12-10T03:30:58.705Z,79.91
2018-12-10T03:31:58.799Z,79.91
2018-12-10T03:32:58.694Z,79.50
2018-12-10T03:33:58.719Z,79.98
2018-12-10T03:34:58.653Z,80.22
2018-12-10T03:35:58.631Z,79.40
2018-12-10T03:36:58.627Z,80.22
2018-12-10T03:37:58.779Z,80.64
2018-12-10T03:38:58.589Z,79.40
2018-12-10T03:39:58.614Z,79.19
2018-12-10T03:40:58.585Z,79.81
2018-12-10T03:41:58.591Z,79.19
2018-12-10T03:42:58.573Z,79.40
2018-12-10T03:43:58.549Z,79.26
2018-12-10T03:44:58.550Z,79.81
2018-12-10T03:45:58.629Z,79.30
2018-12-10T03:46:58.567Z,79.19
2018-12-10T03:47:58.598Z,79.50
2018-12-10T03:48:59.414Z,79.71
2018-12-10T03:49:58.589Z,80.02
2018-12-10T03:51:02.459Z,79.50
2018-12-10T03:51:58.459Z,79.09
2018-12-10T03:52:58.462Z,79.30
2018-12-10T03:53:58.443Z,80.12
2018-12-10T03:54:58.474Z,80.02
2018-12-10T03:55:58.412Z,80.33
2018-12-10T03:56:58.474Z,80.12
2018-12-10T03:57:58.403Z,79.91
2018-12-10T03:58:58.938Z,79.60
2018-12-10T03:59:58.411Z,79.57
2018-12-10T04:00:58.440Z,79.40
2018-12-10T04:01:58.417Z,80.12
2018-12-10T04:02:58.340Z,80.12
2018-12-10T04:03:58.331Z,80.12
2018-12-10T04:04:58.942Z,79.50
2018-12-10T04:05:58.313Z,79.81
2018-12-10T04:06:58.318Z,79.60
2018-12-10T04:07:59.351Z,79.81
2018-12-10T04:08:58.268Z,79.71
2018-12-10T04:09:58.277Z,79.50
2018-12-10T04:10:58.285Z,79.30
2018-12-10T04:11:58.279Z,79.40
2018-12-10T04:12:58.293Z,79.36
2018-12-10T04:13:58.214Z,79.19
2018-12-10T04:14:58.229Z,79.09
2018-12-10T04:15:58.196Z,79.26
2018-12-10T04:16:58.218Z,79.91
2018-12-10T04:17:58.234Z,79.30
2018-12-10T04:18:58.199Z,79.16
2018-12-10T04:19:58.156Z,78.78
2018-12-10T04:20:58.155Z,79.09
2018-12-10T04:21:58.203Z,79.30
2018-12-10T04:22:58.146Z,79.40
2018-12-10T04:23:58.132Z,79.60
2018-12-10T04:24:58.107Z,78.88
2018-12-10T04:25:58.138Z,79.19
2018-12-10T04:26:58.086Z,79.81
2018-12-10T04:27:58.089Z,79.81
2018-12-10T04:28:58.103Z,79.40
2018-12-10T04:29:58.058Z,79.19
2018-12-10T04:30:58.073Z,79.30
2018-12-10T04:31:58.045Z,79.71
2018-12-10T04:32:58.070Z,79.71
2018-12-10T04:33:58.020Z,79.81
2018-12-10T04:34:57.996Z,78.88
2018-12-10T04:35:58.215Z,78.88
2018-12-10T04:36:58.106Z,78.99
2018-12-10T04:37:57.973Z,79.30
2018-12-10T04:38:57.973Z,78.88
2018-12-10T04:39:58.000Z,79.19
2018-12-10T04:40:57.942Z,80.02
2018-12-10T04:41:57.936Z,78.99
2018-12-10T04:42:57.929Z,79.50
2018-12-10T04:44:06.963Z,78.78
2018-12-10T04:44:57.890Z,79.19
2018-12-10T04:45:57.870Z,78.99
2018-12-10T04:46:57.890Z,79.09
2018-12-10T04:47:57.852Z,78.99
2018-12-10T04:48:57.837Z,78.99
2018-12-10T04:49:57.846Z,79.09
2018-12-10T04:51:07.988Z,79.50
2018-12-10T04:51:57.840Z,78.88
2018-12-10T04:53:07.015Z,78.47
2018-12-10T04:54:07.084Z,78.88
2018-12-10T04:54:57.780Z,78.74
2018-12-10T04:55:57.767Z,78.99
2018-12-10T04:56:57.744Z,79.50
2018-12-10T04:57:57.760Z,79.60
2018-12-10T04:58:57.745Z,79.60
2018-12-10T05:00:08.426Z,78.99
2018-12-10T05:00:57.703Z,79.19
2018-12-10T05:01:57.706Z,79.09
2018-12-10T05:02:57.739Z,77.95
2018-12-10T05:03:57.696Z,78.26
2018-12-10T05:04:57.710Z,78.05
2018-12-10T05:05:57.652Z,79.19
2018-12-10T05:06:57.644Z,78.16
2018-12-10T05:07:57.632Z,78.16
2018-12-10T05:08:57.658Z,78.47
2018-12-10T05:09:57.617Z,78.47
2018-12-10T05:10:57.612Z,78.26
2018-12-10T05:12:07.094Z,78.26
2018-12-10T05:13:06.659Z,77.70
2018-12-10T05:14:06.184Z,78.36
2018-12-10T05:14:57.571Z,77.91
2018-12-10T05:16:09.199Z,77.29
2018-12-10T05:17:06.783Z,77.50
2018-12-10T05:18:06.812Z,77.70
2018-12-10T05:19:06.309Z,77.64
2018-12-10T05:21:14.922Z,77.33
2018-12-10T05:22:14.907Z,77.43
2018-12-10T05:23:24.312Z,77.29
2018-12-10T05:24:14.955Z,77.22
2018-12-10T05:25:14.889Z,77.64
2018-12-10T05:26:14.850Z,77.81
2018-12-10T05:27:14.884Z,77.33
2018-12-10T05:28:14.850Z,77.53
2018-12-10T05:29:14.827Z,78.26
2018-12-10T05:30:14.871Z,77.70
2018-12-10T05:31:14.813Z,77.50
2018-12-10T05:32:14.820Z,77.43
2018-12-10T05:33:14.782Z,77.74
2018-12-10T05:34:14.790Z,78.36
2018-12-10T05:35:14.759Z,77.84
2018-12-10T05:36:14.798Z,77.74
2018-12-10T05:37:14.744Z,77.74
2018-12-10T05:38:14.727Z,77.64
2018-12-10T05:39:24.842Z,78.47
2018-12-10T05:40:23.877Z,77.84
2018-12-10T05:42:32.115Z,77.84
2018-12-10T05:43:41.514Z,77.95
2018-12-10T05:44:32.106Z,77.74
2018-12-10T05:45:32.080Z,77.33
2018-12-10T05:46:32.087Z,77.33
2018-12-10T05:47:32.078Z,77.22
2018-12-10T05:48:32.030Z,77.53
2018-12-10T05:49:32.031Z,77.64
2018-12-10T05:50:32.052Z,77.95
2018-12-10T05:51:32.093Z,78.26
2018-12-10T05:52:41.042Z,77.74
2018-12-10T05:53:31.983Z,77.74
2018-12-10T05:54:31.981Z,77.74
2018-12-10T05:55:32.002Z,77.74
2018-12-10T05:56:32.024Z,77.64
2018-12-10T05:57:31.972Z,77.64
2018-12-10T05:58:31.974Z,77.84
2018-12-10T05:59:31.960Z,77.22
2018-12-10T06:00:31.924Z,77.64
2018-12-10T06:01:31.900Z,78.05
2018-12-10T06:02:31.920Z,78.05
2018-12-10T06:03:31.920Z,77.95
2018-12-10T06:04:31.895Z,78.16
2018-12-10T06:05:31.867Z,78.57
2018-12-10T06:06:31.862Z,78.57
2018-12-10T06:07:31.851Z,77.53
2018-12-10T06:08:31.827Z,77.74
2018-12-10T06:09:31.842Z,78.16
2018-12-10T06:10:31.841Z,78.05
2018-12-10T06:11:31.806Z,77.95
2018-12-10T06:12:31.796Z,77.74
2018-12-10T06:13:31.797Z,77.33
2018-12-10T06:14:31.779Z,77.95
2018-12-10T06:15:31.814Z,77.95
2018-12-10T06:16:31.812Z,77.84
2018-12-10T06:17:31.744Z,77.53
2018-12-10T06:18:31.905Z,77.43
2018-12-10T06:19:31.742Z,77.53
2018-12-10T06:20:31.731Z,77.78
2018-12-10T06:21:31.709Z,78.05
2018-12-10T06:22:31.691Z,78.19
2018-12-10T06:23:31.732Z,78.16
2018-12-10T06:24:32.483Z,78.16
2018-12-10T06:25:31.976Z,78.81
2018-12-10T06:26:31.724Z,79.33
2018-12-10T06:27:31.719Z,78.81
2018-12-10T06:28:31.683Z,78.50
2018-12-10T06:29:31.915Z,79.13
2018-12-10T06:30:31.757Z,79.27
2018-12-10T06:31:31.736Z,79.47
2018-12-10T06:32:31.965Z,78.85
2018-12-10T06:33:31.725Z,79.78
2018-12-10T06:34:31.741Z,79.58
2018-12-10T06:35:31.760Z,79.27
2018-12-10T06:36:31.589Z,79.68
2018-12-10T06:37:37.510Z,79.58
2018-12-10T06:38:32.618Z,79.58
2018-12-10T06:39:31.557Z,79.37
2018-12-10T06:40:31.552Z,80.19
2018-12-10T06:41:31.597Z,80.09
2018-12-10T06:42:31.568Z,80.19
2018-12-10T06:43:31.495Z,80.19
2018-12-10T06:44:31.501Z,80.19
2018-12-10T06:45:32.487Z,80.40
2018-12-10T06:46:31.454Z,80.19
2018-12-10T06:47:31.456Z,80.40
2018-12-10T06:48:31.487Z,80.19
2018-12-10T06:49:31.489Z,79.47
2018-12-10T06:50:31.451Z,79.99
2018-12-10T06:51:31.435Z,80.40
2018-12-10T06:52:31.492Z,80.71
2018-12-10T06:53:31.396Z,80.09
2018-12-10T06:54:31.377Z,79.99
2018-12-10T06:55:31.374Z,80.85
2018-12-10T06:56:31.501Z,80.33
2018-12-10T06:57:31.569Z,80.33
2018-12-10T06:58:31.391Z,80.65
2018-12-10T06:59:31.396Z,80.54
2018-12-10T07:00:31.436Z,80.54
2018-12-10T07:01:31.313Z,80.65
2018-12-10T07:02:31.309Z,80.65
2018-12-10T07:03:31.306Z,80.44
2018-12-10T07:04:31.312Z,80.54
2018-12-10T07:05:31.255Z,81.16
2018-12-10T07:06:31.280Z,80.44
2018-12-10T07:07:31.237Z,80.79
2018-12-10T07:08:31.220Z,80.89
2018-12-10T07:09:31.226Z,80.37
2018-12-10T07:10:31.234Z,81.10
2018-12-10T07:11:31.192Z,81.41
2018-12-10T07:12:31.263Z,81.30
2018-12-10T07:13:31.210Z,81.30
2018-12-10T07:14:31.189Z,80.99
2018-12-10T07:15:31.173Z,81.41
2018-12-10T07:16:31.174Z,81.30
2018-12-10T07:17:31.134Z,81.30
2018-12-10T07:18:31.142Z,81.10
2018-12-10T07:19:31.114Z,81.30
2018-12-10T07:20:31.160Z,81.41
2018-12-10T07:21:31.113Z,81.06
2018-12-10T07:22:31.097Z,81.37
2018-12-10T07:23:31.069Z,81.10
2018-12-10T07:24:31.076Z,80.99
2018-12-10T07:25:31.059Z,80.96
2018-12-10T07:26:31.040Z,80.44
2018-12-10T07:27:31.079Z,80.96
2018-12-10T07:28:31.011Z,80.33
2018-12-10T07:29:31.022Z,80.47
2018-12-10T07:30:31.014Z,81.06
2018-12-10T07:31:30.988Z,80.99
2018-12-10T07:32:31.023Z,81.10
2018-12-10T07:33:30.972Z,80.68
2018-12-10T07:34:30.969Z,80.23
2018-12-10T07:35:30.967Z,81.06
2018-12-10T07:36:31.061Z,80.44
2018-12-10T07:37:30.981Z,79.92
2018-12-10T07:38:30.938Z,80.13
2018-12-10T07:39:30.943Z,80.44
2018-12-10T07:40:30.878Z,80.33
2018-12-10T07:41:30.933Z,80.02
2018-12-10T07:42:30.902Z,80.23
2018-12-10T07:43:30.879Z,80.44
2018-12-10T07:44:30.923Z,80.23
2018-12-10T07:45:30.879Z,79.68
2018-12-10T07:46:30.933Z,79.99
2018-12-10T07:47:30.839Z,79.99
2018-12-10T07:48:30.911Z,80.09
2018-12-10T07:49:30.798Z,80.09
2018-12-10T07:50:31.332Z,80.40
2018-12-10T07:51:30.804Z,79.27
2018-12-10T07:52:30.865Z,79.37
2018-12-10T07:53:30.776Z,79.68
2018-12-10T07:54:30.745Z,79.16
2018-12-10T07:55:30.912Z,79.68
2018-12-10T07:56:30.757Z,79.27
2018-12-10T07:57:30.705Z,79.06
2018-12-10T07:58:30.733Z,78.85
2018-12-10T07:59:30.751Z,78.85
2018-12-10T08:00:30.702Z,78.30
2018-12-10T08:01:30.763Z,78.71
2018-12-10T08:02:30.813Z,78.19
2018-12-10T08:03:30.652Z,78.50
2018-12-10T08:04:30.649Z,78.50
2018-12-10T08:05:30.659Z,78.81
2018-12-10T08:06:30.607Z,79.02
2018-12-10T08:07:30.639Z,78.40
2018-12-10T08:08:30.707Z,78.26
2018-12-10T08:09:30.604Z,77.43
2018-12-10T08:10:30.592Z,77.57
2018-12-10T08:11:30.621Z,77.43
2018-12-10T08:12:30.586Z,77.22
2018-12-10T08:13:30.572Z,77.43
2018-12-10T08:14:30.587Z,77.22
2018-12-10T08:15:30.531Z,77.15
2018-12-10T08:16:30.548Z,77.67
2018-12-10T08:17:30.597Z,77.88
2018-12-10T08:18:30.560Z,77.47
2018-12-10T08:19:30.536Z,77.05
2018-12-10T08:20:30.533Z,76.74
2018-12-10T08:21:30.452Z,77.67
2018-12-10T08:22:30.465Z,77.19
2018-12-10T08:23:30.545Z,77.05
2018-12-10T08:24:30.466Z,77.40
2018-12-10T08:25:30.419Z,77.50
2018-12-10T08:26:30.441Z,77.50
2018-12-10T08:27:30.474Z,78.33
2018-12-10T08:28:30.399Z,77.61
2018-12-10T08:29:30.420Z,77.64
2018-12-10T08:30:30.411Z,77.75
2018-12-10T08:31:30.470Z,77.95
2018-12-10T08:32:30.342Z,77.85
2018-12-10T08:33:30.390Z,77.75
2018-12-10T08:34:30.354Z,78.16
2018-12-10T08:35:30.430Z,78.37
2018-12-10T08:36:30.341Z,78.37
2018-12-10T08:37:30.291Z,78.06
2018-12-10T08:38:30.306Z,78.68
2018-12-10T08:39:30.269Z,77.95
2018-12-10T08:40:30.264Z,78.68
2018-12-10T08:41:30.381Z,78.78
2018-12-10T08:42:30.282Z,78.78
2018-12-10T08:43:30.282Z,78.89
2018-12-10T08:44:30.278Z,78.30
2018-12-10T08:45:30.209Z,78.20
2018-12-10T08:46:30.231Z,78.37
2018-12-10T08:47:30.249Z,78.27
2018-12-10T08:48:30.219Z,77.99
2018-12-10T08:49:30.207Z,78.16
2018-12-10T08:50:30.161Z,77.75
2018-12-10T08:51:30.153Z,77.64
2018-12-10T08:52:30.147Z,77.75
2018-12-10T08:53:30.148Z,77.44
2018-12-10T08:54:30.195Z,77.33
2018-12-10T08:55:30.209Z,77.64
2018-12-10T08:56:30.087Z,77.71
2018-12-10T08:57:30.136Z,77.33
2018-12-10T08:58:30.074Z,77.33
2018-12-10T08:59:30.113Z,77.23
2018-12-10T09:00:30.080Z,77.02
2018-12-10T09:01:30.078Z,77.02
2018-12-10T09:02:30.021Z,77.02
2018-12-10T09:03:30.061Z,77.29
2018-12-10T09:04:30.125Z,76.46
2018-12-10T09:05:30.978Z,76.15
2018-12-10T09:06:29.995Z,76.46
2018-12-10T09:07:29.975Z,75.95
2018-12-10T09:08:30.053Z,75.53
2018-12-10T09:09:29.980Z,75.74
2018-12-10T09:10:30.016Z,75.50
2018-12-10T09:11:30.063Z,75.74
2018-12-10T09:12:29.988Z,75.29
2018-12-10T09:13:29.934Z,75.71
2018-12-10T09:14:29.921Z,75.63
2018-12-10T09:15:29.954Z,76.26
2018-12-10T09:16:29.931Z,75.84
2018-12-10T09:17:30.009Z,75.81
2018-12-10T09:18:29.860Z,75.29
2018-12-10T09:19:29.883Z,75.09
2018-12-10T09:20:38.606Z,75.09
2018-12-10T09:21:39.597Z,75.05
2018-12-10T09:22:29.889Z,74.98
2018-12-10T09:23:29.827Z,73.81
2018-12-10T09:24:29.804Z,74.63
2018-12-10T09:25:29.798Z,73.91
2018-12-10T09:26:29.780Z,74.32
2018-12-10T09:27:29.817Z,73.88
2018-12-10T09:28:29.787Z,74.40
2018-12-10T09:29:29.782Z,73.81
2018-12-10T09:30:29.787Z,74.32
2018-12-10T09:31:29.738Z,74.43
2018-12-10T09:32:29.777Z,74.12
2018-12-10T09:33:29.783Z,74.95
2018-12-10T09:34:29.714Z,74.63
2018-12-10T09:35:29.719Z,73.81
2018-12-10T09:36:29.709Z,74.36
2018-12-10T09:37:29.723Z,73.91
2018-12-10T09:38:29.691Z,73.71
2018-12-10T09:39:30.288Z,74.74
2018-12-10T09:40:29.650Z,73.91
2018-12-10T09:41:29.634Z,74.08
2018-12-10T09:42:29.619Z,73.36
2018-12-10T09:43:29.645Z,73.67
2018-12-10T09:44:29.685Z,73.57
2018-12-10T09:45:29.623Z,73.67
2018-12-10T09:46:29.598Z,73.05
2018-12-10T09:47:29.602Z,72.85
2018-12-10T09:48:29.592Z,73.60
2018-12-10T09:49:29.554Z,72.67
2018-12-10T09:50:29.622Z,73.71
2018-12-10T09:51:29.526Z,73.29
2018-12-10T09:52:29.547Z,73.67
2018-12-10T09:53:29.504Z,73.60
2018-12-10T09:54:29.525Z,72.46
2018-12-10T09:55:29.570Z,72.67
2018-12-10T09:56:29.483Z,72.43
2018-12-10T09:57:29.472Z,73.50
2018-12-10T09:58:29.464Z,73.71
2018-12-10T09:59:29.451Z,73.60
2018-12-10T10:00:29.427Z,73.60
2018-12-10T10:01:29.516Z,74.74
2018-12-10T10:02:29.454Z,73.81
2018-12-10T10:03:29.437Z,73.67
2018-12-10T10:04:29.431Z,72.94
2018-12-10T10:05:29.406Z,73.19
2018-12-10T10:06:29.344Z,74.32
2018-12-10T10:07:29.363Z,73.25
2018-12-10T10:08:29.342Z,72.85
2018-12-10T10:09:29.351Z,72.43
2018-12-10T10:10:29.343Z,72.43
2018-12-10T10:11:29.339Z,72.02
2018-12-10T10:12:29.354Z,73.57
2018-12-10T10:13:29.426Z,73.15
2018-12-10T10:14:29.295Z,73.15
2018-12-10T10:15:29.302Z,73.57
2018-12-10T10:16:29.293Z,73.57
2018-12-10T10:17:29.238Z,73.57
2018-12-10T10:18:29.226Z,72.81
2018-12-10T10:19:29.234Z,72.64
2018-12-10T10:20:29.217Z,72.60
2018-12-10T10:21:29.193Z,72.36
2018-12-10T10:22:29.190Z,71.95
2018-12-10T10:23:29.179Z,72.05
2018-12-10T10:24:29.183Z,72.60
2018-12-10T10:25:29.161Z,72.08
2018-12-10T10:26:29.149Z,71.98
2018-12-10T10:27:29.124Z,71.57
2018-12-10T10:28:29.145Z,71.98
2018-12-10T10:29:29.125Z,72.50
2018-12-10T10:30:29.118Z,72.02
2018-12-10T10:31:29.086Z,72.02
2018-12-10T10:32:29.084Z,72.50
2018-12-10T10:33:32.494Z,71.78
2018-12-10T10:34:29.059Z,71.47
2018-12-10T10:35:29.106Z,71.47
2018-12-10T10:36:29.080Z,71.26
2018-12-10T10:37:29.029Z,70.43
2018-12-10T10:38:29.021Z,70.22
2018-12-10T10:39:29.041Z,70.92
2018-12-10T10:40:29.034Z,70.53
2018-12-10T10:41:31.332Z,70.74
2018-12-10T10:42:28.974Z,70.22
2018-12-10T10:43:28.962Z,70.61
2018-12-10T10:44:28.984Z,70.81
2018-12-10T10:45:34.707Z,70.19
2018-12-10T10:46:29.997Z,70.12
2018-12-10T10:47:28.921Z,70.61
2018-12-10T10:48:28.912Z,70.19
2018-12-10T10:49:28.906Z,69.98
2018-12-10T10:50:28.895Z,70.92
2018-12-10T10:51:28.882Z,70.71
2018-12-10T10:52:33.160Z,70.92
2018-12-10T10:53:28.860Z,70.29
2018-12-10T10:54:29.078Z,71.12
2018-12-10T10:55:28.911Z,70.81
2018-12-10T10:56:28.961Z,70.29
2018-12-10T10:57:28.845Z,70.61
2018-12-10T10:58:28.831Z,70.81
2018-12-10T10:59:28.811Z,70.92
2018-12-10T11:00:28.821Z,70.26
2018-12-10T11:01:28.790Z,70.61
2018-12-10T11:02:28.755Z,70.19
2018-12-10T11:03:28.830Z,70.71
2018-12-10T11:04:37.085Z,70.29
2018-12-10T11:05:29.765Z,70.29
2018-12-10T11:06:28.743Z,69.88
2018-12-10T11:07:29.646Z,71.12
2018-12-10T11:08:28.733Z,71.22
2018-12-10T11:09:28.735Z,70.40
2018-12-10T11:10:28.701Z,70.81
2018-12-10T11:11:28.675Z,70.19
2018-12-10T11:12:28.679Z,69.78
2018-12-10T11:13:28.661Z,68.43
2018-12-10T11:14:28.630Z,69.37
2018-12-10T11:15:28.719Z,69.88
2018-12-10T11:16:28.635Z,70.19
2018-12-10T11:17:28.630Z,69.78
2018-12-10T11:18:28.662Z,70.22
2018-12-10T11:19:28.600Z,70.71
2018-12-10T11:20:28.624Z,70.19
2018-12-10T11:21:28.581Z,70.19
2018-12-10T11:22:28.554Z,70.71
2018-12-10T11:23:28.560Z,69.88
2018-12-10T11:24:28.557Z,70.61
2018-12-10T11:25:28.652Z,70.19
2018-12-10T11:26:28.590Z,70.81
2018-12-10T11:27:28.507Z,69.88
2018-12-10T11:28:28.482Z,70.09
2018-12-10T11:29:28.491Z,70.09
2018-12-10T11:30:28.550Z,70.29
2018-12-10T11:31:28.493Z,70.19
2018-12-10T11:32:28.461Z,70.32
2018-12-10T11:33:28.458Z,70.71
2018-12-10T11:34:28.430Z,70.71
2018-12-10T11:35:28.439Z,71.22
2018-12-10T11:36:28.408Z,70.12
2018-12-10T11:37:28.426Z,70.12
2018-12-10T11:38:28.462Z,70.53
2018-12-10T11:39:28.379Z,71.36
2018-12-10T11:40:28.404Z,71.15
2018-12-10T11:41:28.394Z,70.53
2018-12-10T11:42:28.360Z,70.53
2018-12-10T11:43:28.342Z,70.53
2018-12-10T11:44:28.331Z,70.74
2018-12-10T11:45:28.319Z,70.92
2018-12-10T11:46:28.372Z,69.98
2018-12-10T11:47:28.495Z,70.01
2018-12-10T11:48:28.308Z,70.19
2018-12-10T11:49:28.290Z,70.71
2018-12-10T11:50:28.261Z,70.74
2018-12-10T11:51:28.293Z,70.12
2018-12-10T11:52:28.239Z,70.81
2018-12-10T11:53:28.237Z,70.19
2018-12-10T11:54:28.260Z,70.64
2018-12-10T11:55:28.233Z,70.09
2018-12-10T11:56:28.247Z,70.53
2018-12-10T11:57:28.227Z,71.26
2018-12-10T11:58:28.191Z,71.74
2018-12-10T11:59:28.222Z,71.47
2018-12-10T12:00:29.608Z,71.78
2018-12-10T12:01:28.181Z,70.61
2018-12-10T12:02:29.842Z,70.12
2018-12-10T12:03:28.210Z,70.22
2018-12-10T12:04:28.140Z,70.61
2018-12-10T12:05:28.169Z,70.84
2018-12-10T12:06:28.114Z,71.26
2018-12-10T12:07:28.067Z,71.78
2018-12-10T12:08:28.084Z,71.05
2018-12-10T12:09:28.067Z,70.12
2018-12-10T12:10:28.076Z,71.08
2018-12-10T12:11:28.063Z,71.36
2018-12-10T12:12:28.064Z,70.95
2018-12-10T12:13:28.043Z,70.32
2018-12-10T12:14:28.010Z,70.77
2018-12-10T12:15:28.005Z,71.15
2018-12-10T12:16:27.992Z,70.26
2018-12-10T12:17:27.974Z,70.67
2018-12-10T12:18:28.019Z,71.08
2018-12-10T12:19:27.961Z,70.77
2018-12-10T12:20:28.853Z,70.98
2018-12-10T12:21:28.537Z,70.67
2018-12-10T12:22:28.372Z,70.77
2018-12-10T12:23:29.550Z,70.36
2018-12-10T12:24:27.960Z,70.05
2018-12-10T12:25:27.897Z,70.64
2018-12-10T12:26:27.906Z,70.67
2018-12-10T12:27:27.965Z,70.15
2018-12-10T12:28:27.875Z,70.36
2018-12-10T12:29:27.885Z,71.70
2018-12-10T12:30:27.852Z,71.39
2018-12-10T12:31:27.840Z,71.88
2018-12-10T12:32:27.840Z,71.67
2018-12-10T12:33:27.834Z,71.26
2018-12-10T12:34:27.805Z,70.92
2018-12-10T12:35:27.813Z,69.71
2018-12-10T12:36:27.759Z,70.32
2018-12-10T12:37:27.761Z,69.98
2018-12-10T12:38:27.751Z,70.64
2018-12-10T12:39:27.743Z,72.08
2018-12-10T12:40:27.740Z,71.98
2018-12-10T12:41:27.767Z,72.08
2018-12-10T12:42:27.776Z,71.88
2018-12-10T12:43:27.756Z,71.84
2018-12-10T12:44:27.805Z,71.78
2018-12-10T12:45:27.684Z,72.08
2018-12-10T12:46:27.671Z,72.29
2018-12-10T12:47:27.655Z,71.26
2018-12-10T12:48:27.666Z,71.91
2018-12-10T12:49:27.876Z,72.12
2018-12-10T12:50:27.728Z,72.12
2018-12-10T12:51:27.605Z,72.22
2018-12-10T12:52:27.634Z,71.91
2018-12-10T12:53:27.609Z,73.29
2018-12-10T12:54:27.580Z,75.36
2018-12-10T12:55:27.566Z,77.33
2018-12-10T12:56:27.571Z,78.36